logo
Search for airport 
image banner adimage banner adimage banner ad
image banner ad

SVMN - Los Mangos

Located in Barinas, Venezuela

ICAO - SVMN, IATA -

Data provided by Airmate  

General information

Coordinates: N7°56'24" W70°3'50"
Elevation is 344 feet MSL.
Magnetic variation is -11° East
View others Airports in Zulia

Operational data

Special qualification required
Current time UTC:
Current local time:
Weather at : - ( 0 km )
METAR: KNQX 191306Z AUTO 10011KT 10SM FEW004 BKN120 31/27 A2992 RMK AO2 T03060267 $
View NOTAMs / SUP AIP / TFR affecting this airport [VIEW]
Communications frequencies: [VIEW]

Runways:

RWY identifierQFULength (ft)Width (ft)SurfaceLDA (ft)
15148°2704102DIRT
33328°2704102DIRT

Airport contact information

Address: Barinas Venezuela

Satellite view of SVMN